sensor_id;sensor_type;location;lat;lon;timestamp;pressure;altitude;pressure_sealevel;temperature
69857;BMP280;57147;53.582;10.112;2022-09-17T00:02:23;100225.72;;;11.14
69857;BMP280;57147;53.582;10.112;2022-09-17T00:07:24;100223.06;;;11.14
69857;BMP280;57147;53.582;10.112;2022-09-17T00:12:24;100231.94;;;11.10
69857;BMP280;57147;53.582;10.112;2022-09-17T00:17:27;100231.59;;;11.03
69857;BMP280;57147;53.582;10.112;2022-09-17T00:22:28;100234.25;;;11.03
69857;BMP280;57147;53.582;10.112;2022-09-17T00:27:28;100237.84;;;11.07
69857;BMP280;57147;53.582;10.112;2022-09-17T00:32:31;100248.69;;;11.10
69857;BMP280;57147;53.582;10.112;2022-09-17T00:37:32;100242.94;;;11.17
69857;BMP280;57147;53.582;10.112;2022-09-17T00:42:32;100250.28;;;11.20
69857;BMP280;57147;53.582;10.112;2022-09-17T00:47:38;100232.19;;;11.00
69857;BMP280;57147;53.582;10.112;2022-09-17T00:52:41;100253.81;;;11.07
69857;BMP280;57147;53.582;10.112;2022-09-17T00:57:43;100250.78;;;11.00
69857;BMP280;57147;53.582;10.112;2022-09-17T01:02:47;100252.66;;;10.91
69857;BMP280;57147;53.582;10.112;2022-09-17T01:07:57;100262.16;;;10.92
69857;BMP280;57147;53.582;10.112;2022-09-17T01:13:09;100267.66;;;10.95
69857;BMP280;57147;53.582;10.112;2022-09-17T01:18:24;100266.06;;;10.94
69857;BMP280;57147;53.582;10.112;2022-09-17T01:29:08;100267.03;;;10.90
69857;BMP280;57147;53.582;10.112;2022-09-17T01:34:19;100268.09;;;10.89
69857;BMP280;57147;53.582;10.112;2022-09-17T01:39:29;100278.09;;;10.92
69857;BMP280;57147;53.582;10.112;2022-09-17T01:44:36;100273.13;;;10.99
69857;BMP280;57147;53.582;10.112;2022-09-17T01:49:42;100275.13;;;10.93
69857;BMP280;57147;53.582;10.112;2022-09-17T01:54:45;100279.84;;;10.96
69857;BMP280;57147;53.582;10.112;2022-09-17T01:59:49;100285.53;;;11.03
69857;BMP280;57147;53.582;10.112;2022-09-17T02:04:57;100285.53;;;11.03
69857;BMP280;57147;53.582;10.112;2022-09-17T02:10:02;100291.28;;;11.05
69857;BMP280;57147;53.582;10.112;2022-09-17T02:15:07;100283.75;;;10.99
69857;BMP280;57147;53.582;10.112;2022-09-17T02:20:12;100299.31;;;10.83
69857;BMP280;57147;53.582;10.112;2022-09-17T02:25:17;100299.00;;;10.85
69857;BMP280;57147;53.582;10.112;2022-09-17T02:30:19;100305.88;;;10.86
69857;BMP280;57147;53.582;10.112;2022-09-17T02:35:22;100303.53;;;10.84
69857;BMP280;57147;53.582;10.112;2022-09-17T02:46:02;100300.81;;;10.76
69857;BMP280;57147;53.582;10.112;2022-09-17T02:51:22;100289.00;;;10.82
69857;BMP280;57147;53.582;10.112;2022-09-17T02:56:30;100285.97;;;10.75
69857;BMP280;57147;53.582;10.112;2022-09-17T03:01:39;100280.78;;;10.69
69857;BMP280;57147;53.582;10.112;2022-09-17T03:06:45;100283.91;;;10.71
69857;BMP280;57147;53.582;10.112;2022-09-17T03:11:46;100283.81;;;10.77
69857;BMP280;57147;53.582;10.112;2022-09-17T03:16:47;100280.59;;;10.66
69857;BMP280;57147;53.582;10.112;2022-09-17T03:21:50;100277.03;;;10.70
69857;BMP280;57147;53.582;10.112;2022-09-17T03:26:50;100275.84;;;10.77
69857;BMP280;57147;53.582;10.112;2022-09-17T03:31:51;100285.47;;;10.72
69857;BMP280;57147;53.582;10.112;2022-09-17T03:36:54;100290.50;;;10.74
69857;BMP280;57147;53.582;10.112;2022-09-17T03:41:55;100287.63;;;10.70
69857;BMP280;57147;53.582;10.112;2022-09-17T03:46:55;100290.63;;;10.69
69857;BMP280;57147;53.582;10.112;2022-09-17T03:51:58;100306.13;;;10.76
69857;BMP280;57147;53.582;10.112;2022-09-17T03:56:59;100285.53;;;10.59
69857;BMP280;57147;53.582;10.112;2022-09-17T04:01:59;100298.38;;;10.65
69857;BMP280;57147;53.582;10.112;2022-09-17T04:07:03;100299.47;;;10.64
69857;BMP280;57147;53.582;10.112;2022-09-17T04:12:04;100297.31;;;10.66
69857;BMP280;57147;53.582;10.112;2022-09-17T04:17:04;100305.84;;;10.63
69857;BMP280;57147;53.582;10.112;2022-09-17T04:22:08;100303.44;;;10.53
69857;BMP280;57147;53.582;10.112;2022-09-17T04:27:08;100309.38;;;10.37
69857;BMP280;57147;53.582;10.112;2022-09-17T04:32:09;100316.66;;;10.31
69857;BMP280;57147;53.582;10.112;2022-09-17T04:37:12;100315.88;;;10.30
69857;BMP280;57147;53.582;10.112;2022-09-17T04:42:12;100322.06;;;10.26
69857;BMP280;57147;53.582;10.112;2022-09-17T04:47:13;100344.97;;;10.22
69857;BMP280;57147;53.582;10.112;2022-09-17T04:52:16;100341.03;;;10.06
69857;BMP280;57147;53.582;10.112;2022-09-17T04:57:17;100258.28;;;9.54
69857;BMP280;57147;53.582;10.112;2022-09-17T05:02:17;100293.75;;;9.85
69857;BMP280;57147;53.582;10.112;2022-09-17T05:07:20;100299.81;;;9.72
69857;BMP280;57147;53.582;10.112;2022-09-17T05:12:21;100293.44;;;9.73
69857;BMP280;57147;53.582;10.112;2022-09-17T05:17:21;100297.16;;;9.72
69857;BMP280;57147;53.582;10.112;2022-09-17T05:22:25;100303.84;;;9.70
69857;BMP280;57147;53.582;10.112;2022-09-17T05:27:25;100297.94;;;9.73
69857;BMP280;57147;53.582;10.112;2022-09-17T05:32:26;100300.97;;;9.66
69857;BMP280;57147;53.582;10.112;2022-09-17T05:37:29;100314.06;;;9.76
69857;BMP280;57147;53.582;10.112;2022-09-17T05:42:29;100313.09;;;9.86
69857;BMP280;57147;53.582;10.112;2022-09-17T05:47:30;100313.59;;;10.02
69857;BMP280;57147;53.582;10.112;2022-09-17T05:52:33;100319.84;;;9.92
69857;BMP280;57147;53.582;10.112;2022-09-17T05:57:34;100324.19;;;10.02
69857;BMP280;57147;53.582;10.112;2022-09-17T06:02:34;100324.06;;;10.07
69857;BMP280;57147;53.582;10.112;2022-09-17T06:07:38;100290.00;;;9.86
69857;BMP280;57147;53.582;10.112;2022-09-17T06:12:38;100335.31;;;10.26
69857;BMP280;57147;53.582;10.112;2022-09-17T06:17:39;100346.25;;;10.11
69857;BMP280;57147;53.582;10.112;2022-09-17T06:22:42;100360.50;;;10.15
69857;BMP280;57147;53.582;10.112;2022-09-17T06:27:43;100353.22;;;10.07
69857;BMP280;57147;53.582;10.112;2022-09-17T06:32:43;100358.16;;;10.00
69857;BMP280;57147;53.582;10.112;2022-09-17T06:37:46;100370.94;;;9.98
69857;BMP280;57147;53.582;10.112;2022-09-17T06:42:47;100377.03;;;9.98
69857;BMP280;57147;53.582;10.112;2022-09-17T06:47:48;100379.06;;;9.87
69857;BMP280;57147;53.582;10.112;2022-09-17T06:52:52;100388.78;;;9.78
69857;BMP280;57147;53.582;10.112;2022-09-17T06:57:53;100367.91;;;9.58
69857;BMP280;57147;53.582;10.112;2022-09-17T07:02:56;100385.25;;;9.83
69857;BMP280;57147;53.582;10.112;2022-09-17T07:08:00;100383.22;;;9.93
69857;BMP280;57147;53.582;10.112;2022-09-17T07:13:01;100390.25;;;10.12
69857;BMP280;57147;53.582;10.112;2022-09-17T07:18:07;100395.09;;;10.10
69857;BMP280;57147;53.582;10.112;2022-09-17T07:23:10;100399.78;;;10.13
69857;BMP280;57147;53.582;10.112;2022-09-17T07:28:10;100417.28;;;10.27
69857;BMP280;57147;53.582;10.112;2022-09-17T07:33:11;100420.44;;;10.43
69857;BMP280;57147;53.582;10.112;2022-09-17T07:38:14;100411.75;;;10.65
69857;BMP280;57147;53.582;10.112;2022-09-17T07:43:14;100376.00;;;10.62
69857;BMP280;57147;53.582;10.112;2022-09-17T07:48:15;100418.75;;;10.97
69857;BMP280;57147;53.582;10.112;2022-09-17T07:53:18;100413.91;;;10.77
69857;BMP280;57147;53.582;10.112;2022-09-17T07:58:19;100425.50;;;10.81
69857;BMP280;57147;53.582;10.112;2022-09-17T08:03:19;100414.22;;;10.75
69857;BMP280;57147;53.582;10.112;2022-09-17T08:08:23;100413.31;;;10.80
69857;BMP280;57147;53.582;10.112;2022-09-17T08:13:23;100417.97;;;10.96
69857;BMP280;57147;53.582;10.112;2022-09-17T08:18:24;100421.06;;;11.12
69857;BMP280;57147;53.582;10.112;2022-09-17T08:23:28;100415.88;;;11.29
69857;BMP280;57147;53.582;10.112;2022-09-17T08:28:29;100418.47;;;11.43
69857;BMP280;57147;53.582;10.112;2022-09-17T08:33:31;100422.50;;;11.40
69857;BMP280;57147;53.582;10.112;2022-09-17T08:38:35;100419.84;;;11.40
69857;BMP280;57147;53.582;10.112;2022-09-17T08:43:41;100432.06;;;11.41
69857;BMP280;57147;53.582;10.112;2022-09-17T08:48:49;100427.75;;;11.54
69857;BMP280;57147;53.582;10.112;2022-09-17T08:54:01;100416.78;;;11.78
69857;BMP280;57147;53.582;10.112;2022-09-17T08:59:12;100423.81;;;11.82
69857;BMP280;57147;53.582;10.112;2022-09-17T09:04:29;100418.41;;;11.96
69857;BMP280;57147;53.582;10.112;2022-09-17T09:09:40;100404.06;;;12.14
69857;BMP280;57147;53.582;10.112;2022-09-17T09:14:47;100409.72;;;12.21
69857;BMP280;57147;53.582;10.112;2022-09-17T09:19:49;100416.25;;;12.55
69857;BMP280;57147;53.582;10.112;2022-09-17T09:25:01;100417.50;;;12.92
69857;BMP280;57147;53.582;10.112;2022-09-17T09:30:05;100417.00;;;12.47
69857;BMP280;57147;53.582;10.112;2022-09-17T09:35:15;100421.34;;;12.25
69857;BMP280;57147;53.582;10.112;2022-09-17T09:40:27;100414.44;;;12.24
69857;BMP280;57147;53.582;10.112;2022-09-17T09:45:42;100424.47;;;12.27
69857;BMP280;57147;53.582;10.112;2022-09-17T09:50:48;100421.66;;;12.32
69857;BMP280;57147;53.582;10.112;2022-09-17T09:56:01;100422.31;;;12.47
69857;BMP280;57147;53.582;10.112;2022-09-17T10:01:10;100429.09;;;12.61
69857;BMP280;57147;53.582;10.112;2022-09-17T10:06:13;100432.75;;;12.17
69857;BMP280;57147;53.582;10.112;2022-09-17T10:11:20;100438.41;;;12.24
69857;BMP280;57147;53.582;10.112;2022-09-17T10:16:23;100426.94;;;12.15
69857;BMP280;57147;53.582;10.112;2022-09-17T10:21:30;100427.97;;;12.54
69857;BMP280;57147;53.582;10.112;2022-09-17T10:26:35;100418.44;;;12.70
69857;BMP280;57147;53.582;10.112;2022-09-17T10:31:46;100416.53;;;12.45
69857;BMP280;57147;53.582;10.112;2022-09-17T10:36:46;100422.63;;;12.37
69857;BMP280;57147;53.582;10.112;2022-09-17T10:41:56;100406.59;;;12.19
69857;BMP280;57147;53.582;10.112;2022-09-17T10:47:05;100413.66;;;12.24
69857;BMP280;57147;53.582;10.112;2022-09-17T10:52:10;100395.41;;;11.91
69857;BMP280;57147;53.582;10.112;2022-09-17T10:57:20;100399.19;;;12.08
69857;BMP280;57147;53.582;10.112;2022-09-17T11:03:03;100406.84;;;12.57
69857;BMP280;57147;53.582;10.112;2022-09-17T11:08:07;100398.22;;;12.52
69857;BMP280;57147;53.582;10.112;2022-09-17T11:13:23;100398.81;;;12.66
69857;BMP280;57147;53.582;10.112;2022-09-17T11:18:36;100409.03;;;12.55
69857;BMP280;57147;53.582;10.112;2022-09-17T11:23:55;100396.97;;;12.58
69857;BMP280;57147;53.582;10.112;2022-09-17T11:29:11;100390.03;;;12.83
69857;BMP280;57147;53.582;10.112;2022-09-17T11:34:22;100393.63;;;13.21
69857;BMP280;57147;53.582;10.112;2022-09-17T11:39:32;100392.03;;;13.75
69857;BMP280;57147;53.582;10.112;2022-09-17T11:44:40;100394.72;;;14.05
69857;BMP280;57147;53.582;10.112;2022-09-17T11:49:46;100401.06;;;13.91
69857;BMP280;57147;53.582;10.112;2022-09-17T11:54:53;100402.31;;;14.44
69857;BMP280;57147;53.582;10.112;2022-09-17T12:00:02;100385.44;;;14.11
69857;BMP280;57147;53.582;10.112;2022-09-17T12:05:06;100378.13;;;13.90
69857;BMP280;57147;53.582;10.112;2022-09-17T12:10:25;100385.66;;;13.59
69857;BMP280;57147;53.582;10.112;2022-09-17T12:15:34;100379.41;;;13.84
69857;BMP280;57147;53.582;10.112;2022-09-17T12:20:39;100377.69;;;13.88
69857;BMP280;57147;53.582;10.112;2022-09-17T12:25:46;100361.91;;;13.75
69857;BMP280;57147;53.582;10.112;2022-09-17T12:30:58;100363.66;;;13.71
69857;BMP280;57147;53.582;10.112;2022-09-17T12:36:27;100336.72;;;13.84
69857;BMP280;57147;53.582;10.112;2022-09-17T12:41:37;100357.31;;;14.87
69857;BMP280;57147;53.582;10.112;2022-09-17T12:46:49;100354.63;;;14.87
69857;BMP280;57147;53.582;10.112;2022-09-17T12:51:54;100349.31;;;15.24
69857;BMP280;57147;53.582;10.112;2022-09-17T12:57:03;100357.59;;;15.43
69857;BMP280;57147;53.582;10.112;2022-09-17T13:02:16;100358.97;;;14.92
69857;BMP280;57147;53.582;10.112;2022-09-17T13:07:44;100356.53;;;14.99
69857;BMP280;57147;53.582;10.112;2022-09-17T13:12:52;100351.13;;;15.32
69857;BMP280;57147;53.582;10.112;2022-09-17T13:18:01;100337.41;;;15.58
69857;BMP280;57147;53.582;10.112;2022-09-17T13:23:04;100326.94;;;15.41
69857;BMP280;57147;53.582;10.112;2022-09-17T13:28:08;100326.16;;;15.64
69857;BMP280;57147;53.582;10.112;2022-09-17T13:38:47;100326.75;;;14.88
69857;BMP280;57147;53.582;10.112;2022-09-17T13:43:49;100329.97;;;14.49
69857;BMP280;57147;53.582;10.112;2022-09-17T13:48:57;100315.44;;;15.64
69857;BMP280;57147;53.582;10.112;2022-09-17T13:54:00;100317.56;;;16.98
69857;BMP280;57147;53.582;10.112;2022-09-17T13:59:04;100323.47;;;16.44
69857;BMP280;57147;53.582;10.112;2022-09-17T14:04:28;100327.59;;;16.14
69857;BMP280;57147;53.582;10.112;2022-09-17T14:09:51;100375.75;;;15.38
69857;BMP280;57147;53.582;10.112;2022-09-17T14:14:57;100329.19;;;6.58
69857;BMP280;57147;53.582;10.112;2022-09-17T14:20:00;100291.06;;;6.20
69857;BMP280;57147;53.582;10.112;2022-09-17T14:25:01;100262.44;;;8.07
69857;BMP280;57147;53.582;10.112;2022-09-17T14:30:10;100246.25;;;8.83
69857;BMP280;57147;53.582;10.112;2022-09-17T14:35:16;100227.16;;;9.19
69857;BMP280;57147;53.582;10.112;2022-09-17T14:40:19;100216.19;;;9.52
69857;BMP280;57147;53.582;10.112;2022-09-17T14:45:26;100212.06;;;9.60
69857;BMP280;57147;53.582;10.112;2022-09-17T14:50:30;100224.59;;;9.41
69857;BMP280;57147;53.582;10.112;2022-09-17T14:55:30;100239.34;;;9.74
69857;BMP280;57147;53.582;10.112;2022-09-17T15:00:33;100233.84;;;9.84
69857;BMP280;57147;53.582;10.112;2022-09-17T15:05:36;100244.38;;;10.12
69857;BMP280;57147;53.582;10.112;2022-09-17T15:10:44;100234.66;;;10.43
69857;BMP280;57147;53.582;10.112;2022-09-17T15:16:00;100226.44;;;10.31
69857;BMP280;57147;53.582;10.112;2022-09-17T15:21:13;100220.31;;;10.44
69857;BMP280;57147;53.582;10.112;2022-09-17T15:26:22;100220.00;;;10.90
69857;BMP280;57147;53.582;10.112;2022-09-17T15:31:23;100219.31;;;10.85
69857;BMP280;57147;53.582;10.112;2022-09-17T15:36:27;100216.66;;;10.85
69857;BMP280;57147;53.582;10.112;2022-09-17T15:41:30;100215.97;;;10.70
69857;BMP280;57147;53.582;10.112;2022-09-17T15:46:31;100231.59;;;10.72
69857;BMP280;57147;53.582;10.112;2022-09-17T15:51:35;100236.13;;;10.71
69857;BMP280;57147;53.582;10.112;2022-09-17T15:56:39;100226.72;;;10.65
69857;BMP280;57147;53.582;10.112;2022-09-17T16:01:51;100243.50;;;10.75
69857;BMP280;57147;53.582;10.112;2022-09-17T16:06:57;100247.00;;;10.61
69857;BMP280;57147;53.582;10.112;2022-09-17T16:11:59;100240.34;;;10.72
69857;BMP280;57147;53.582;10.112;2022-09-17T16:17:08;100247.09;;;10.79
69857;BMP280;57147;53.582;10.112;2022-09-17T16:22:11;100259.34;;;10.88
69857;BMP280;57147;53.582;10.112;2022-09-17T16:27:15;100259.53;;;10.69
69857;BMP280;57147;53.582;10.112;2022-09-17T16:32:16;100266.88;;;10.50
69857;BMP280;57147;53.582;10.112;2022-09-17T16:37:24;100258.03;;;10.55
69857;BMP280;57147;53.582;10.112;2022-09-17T16:42:24;100259.13;;;10.40
69857;BMP280;57147;53.582;10.112;2022-09-17T16:47:25;100271.19;;;10.60
69857;BMP280;57147;53.582;10.112;2022-09-17T16:52:28;100262.78;;;10.44
69857;BMP280;57147;53.582;10.112;2022-09-17T16:57:32;100286.53;;;10.49
69857;BMP280;57147;53.582;10.112;2022-09-17T17:02:35;100279.19;;;10.46
69857;BMP280;57147;53.582;10.112;2022-09-17T17:07:40;100274.19;;;10.45
69857;BMP280;57147;53.582;10.112;2022-09-17T17:12:40;100262.41;;;10.37
69857;BMP280;57147;53.582;10.112;2022-09-17T17:17:41;100287.72;;;10.43
69857;BMP280;57147;53.582;10.112;2022-09-17T17:22:44;100288.09;;;10.50
69857;BMP280;57147;53.582;10.112;2022-09-17T17:27:45;100292.22;;;10.56
69857;BMP280;57147;53.582;10.112;2022-09-17T17:32:49;100304.66;;;10.47
69857;BMP280;57147;53.582;10.112;2022-09-17T17:37:53;100300.50;;;10.55
69857;BMP280;57147;53.582;10.112;2022-09-17T17:42:53;100309.22;;;10.55
69857;BMP280;57147;53.582;10.112;2022-09-17T17:47:54;100308.97;;;10.43
69857;BMP280;57147;53.582;10.112;2022-09-17T17:52:57;100318.38;;;10.49
69857;BMP280;57147;53.582;10.112;2022-09-17T17:57:58;100328.22;;;10.49
69857;BMP280;57147;53.582;10.112;2022-09-17T18:02:58;100329.00;;;10.49
69857;BMP280;57147;53.582;10.112;2022-09-17T18:08:01;100336.03;;;10.31
69857;BMP280;57147;53.582;10.112;2022-09-17T18:13:02;100343.91;;;10.23
69857;BMP280;57147;53.582;10.112;2022-09-17T18:18:03;100353.03;;;10.17
69857;BMP280;57147;53.582;10.112;2022-09-17T18:23:06;100351.84;;;10.23
69857;BMP280;57147;53.582;10.112;2022-09-17T18:28:07;100359.72;;;10.14
69857;BMP280;57147;53.582;10.112;2022-09-17T18:33:08;100358.53;;;10.20
69857;BMP280;57147;53.582;10.112;2022-09-17T18:38:11;100357.25;;;10.18
69857;BMP280;57147;53.582;10.112;2022-09-17T18:43:12;100366.38;;;10.12
69857;BMP280;57147;53.582;10.112;2022-09-17T18:48:12;100373.66;;;10.06
69857;BMP280;57147;53.582;10.112;2022-09-17T18:53:16;100363.38;;;10.05
69857;BMP280;57147;53.582;10.112;2022-09-17T18:58:16;100383.13;;;9.99
69857;BMP280;57147;53.582;10.112;2022-09-17T19:03:17;100383.69;;;10.09
69857;BMP280;57147;53.582;10.112;2022-09-17T19:08:22;100382.50;;;10.15
69857;BMP280;57147;53.582;10.112;2022-09-17T19:13:24;100386.41;;;10.18
69857;BMP280;57147;53.582;10.112;2022-09-17T19:18:24;100399.78;;;10.26
69857;BMP280;57147;53.582;10.112;2022-09-17T19:23:28;100400.00;;;10.30
69857;BMP280;57147;53.582;10.112;2022-09-17T19:28:29;100404.22;;;10.17
69857;BMP280;57147;53.582;10.112;2022-09-17T19:33:30;100424.97;;;10.02
69857;BMP280;57147;53.582;10.112;2022-09-17T19:38:33;100402.53;;;10.08
69857;BMP280;57147;53.582;10.112;2022-09-17T19:43:34;100410.69;;;10.11
69857;BMP280;57147;53.582;10.112;2022-09-17T19:48:35;100407.16;;;10.16
69857;BMP280;57147;53.582;10.112;2022-09-17T19:53:38;100421.00;;;10.13
69857;BMP280;57147;53.582;10.112;2022-09-17T20:01:52;100415.81;;;10.35
69857;BMP280;57147;53.582;10.112;2022-09-17T20:06:53;100432.44;;;10.00
69857;BMP280;57147;53.582;10.112;2022-09-17T20:11:53;100427.88;;;9.86
69857;BMP280;57147;53.582;10.112;2022-09-17T20:16:56;100420.59;;;9.78
69857;BMP280;57147;53.582;10.112;2022-09-17T20:21:57;100433.75;;;9.83
69857;BMP280;57147;53.582;10.112;2022-09-17T20:26:58;100431.22;;;9.78
69857;BMP280;57147;53.582;10.112;2022-09-17T20:32:01;100437.00;;;9.80
69857;BMP280;57147;53.582;10.112;2022-09-17T20:37:02;100442.38;;;9.75
69857;BMP280;57147;53.582;10.112;2022-09-17T20:42:03;100440.81;;;9.74
69857;BMP280;57147;53.582;10.112;2022-09-17T20:47:06;100449.84;;;9.73
69857;BMP280;57147;53.582;10.112;2022-09-17T20:52:07;100466.91;;;9.67
69857;BMP280;57147;53.582;10.112;2022-09-17T20:57:07;100462.97;;;9.65
69857;BMP280;57147;53.582;10.112;2022-09-17T21:02:10;100464.91;;;9.59
69857;BMP280;57147;53.582;10.112;2022-09-17T21:07:11;100465.03;;;9.68
69857;BMP280;57147;53.582;10.112;2022-09-17T21:12:12;100477.91;;;9.74
69857;BMP280;57147;53.582;10.112;2022-09-17T21:17:15;100478.06;;;9.83
69857;BMP280;57147;53.582;10.112;2022-09-17T21:22:15;100478.66;;;9.61
69857;BMP280;57147;53.582;10.112;2022-09-17T21:27:16;100482.06;;;9.80
69857;BMP280;57147;53.582;10.112;2022-09-17T21:32:19;100492.44;;;9.63
69857;BMP280;57147;53.582;10.112;2022-09-17T21:37:20;100479.31;;;9.53
69857;BMP280;57147;53.582;10.112;2022-09-17T21:42:21;100485.97;;;9.69
69857;BMP280;57147;53.582;10.112;2022-09-17T21:47:24;100489.69;;;9.68
69857;BMP280;57147;53.582;10.112;2022-09-17T21:52:26;100488.75;;;9.78
69857;BMP280;57147;53.582;10.112;2022-09-17T21:57:27;100492.84;;;9.70
69857;BMP280;57147;53.582;10.112;2022-09-17T22:02:30;100490.19;;;9.70
69857;BMP280;57147;53.582;10.112;2022-09-17T22:07:30;100492.72;;;9.62
69857;BMP280;57147;53.582;10.112;2022-09-17T22:12:31;100479.88;;;9.69
69857;BMP280;57147;53.582;10.112;2022-09-17T22:17:34;100499.78;;;9.66
69857;BMP280;57147;53.582;10.112;2022-09-17T22:22:35;100485.19;;;9.69
69857;BMP280;57147;53.582;10.112;2022-09-17T22:27:35;100483.72;;;9.76
69857;BMP280;57147;53.582;10.112;2022-09-17T22:32:39;100486.78;;;9.83
69857;BMP280;57147;53.582;10.112;2022-09-17T22:37:39;100497.56;;;9.73
69857;BMP280;57147;53.582;10.112;2022-09-17T22:42:40;100493.41;;;9.67
69857;BMP280;57147;53.582;10.112;2022-09-17T22:47:43;100489.28;;;9.61
69857;BMP280;57147;53.582;10.112;2022-09-17T22:52:46;100495.13;;;9.58
69857;BMP280;57147;53.582;10.112;2022-09-17T22:57:47;100480.66;;;9.50
69857;BMP280;57147;53.582;10.112;2022-09-17T23:02:50;100486.97;;;9.36
69857;BMP280;57147;53.582;10.112;2022-09-17T23:07:51;100472.66;;;9.37
69857;BMP280;57147;53.582;10.112;2022-09-17T23:12:53;100480.47;;;9.28
69857;BMP280;57147;53.582;10.112;2022-09-17T23:17:56;100478.03;;;9.32
69857;BMP280;57147;53.582;10.112;2022-09-17T23:22:57;100487.13;;;9.26
69857;BMP280;57147;53.582;10.112;2022-09-17T23:27:58;100486.41;;;9.39
69857;BMP280;57147;53.582;10.112;2022-09-17T23:33:01;100472.06;;;9.40
69857;BMP280;57147;53.582;10.112;2022-09-17T23:38:01;100478.53;;;9.34
69857;BMP280;57147;53.582;10.112;2022-09-17T23:43:02;100481.53;;;9.46
69857;BMP280;57147;53.582;10.112;2022-09-17T23:48:05;100490.72;;;9.53
69857;BMP280;57147;53.582;10.112;2022-09-17T23:53:06;100474.06;;;9.48
69857;BMP280;57147;53.582;10.112;2022-09-17T23:58:06;100482.25;;;9.33
